Terminal Aerodrome Forecast
Issued by NWS St Louis, MO

Home | Current Version | Previous Version | Text Only | Print | Product List | Glossary On
Versions: 1 2 3 4 5 6 7 8 9 10 11 12 13 14 15 16
000
FTUS43 KLSX 052337
TAFCOU
TAF
KCOU 052337Z 0600/0624 15008KT P6SM SCT040 SCT250
     FM061000 14006KT 5SM BR SCT007
     FM061300 19010KT P6SM SCT040 SCT250
     FM061800 20012G20KT P6SM SCT040=

USA.gov is the U.S. government's official web portal to all federal, state and local government web resources and services.